CheckWX is a tool to help pilots better visualize weather data.  It is not intended as a substitute for an official pre-flight weather briefing.

16:42:43 UTC

KELN METAR
Bowers Field Airport
Ellensburg, Washington, USA
Current

50 mins ago

KELN 221553Z AUTO 00000KT 10SM CLR M02/M10 A2998 RMK AO2 SLP175 T10221100
Observed
Feb-22 @ 15:53 UTC
Visibility
10 SM
Flight Rules
VFR
Cloud Levels
  • Clear skies
Temperature
-2°C / 28°F
Dewpoint
-10°C / 14°F
Humidity
55%
Altimeter
29.98" Hg
Pressure
1017.5 hPa
Previous

2 hours ago

KELN 221453Z AUTO 00000KT 10SM OVC100 M06/M10 A3000 RMK AO2 SLP181 T10561100 58010
Observed
Feb-22 @ 14:53 UTC
Visibility
10 SM
Flight Rules
VFR
Cloud Levels
  • Overcast at 10,000' AGL
Temperature
-6°C / 21°F
Dewpoint
-10°C / 14°F
Humidity
74%
Altimeter
30" Hg
Pressure
1018.1 hPa
Previous

3 hours ago

KELN 221353Z AUTO 00000KT 10SM OVC090 M03/M10 A3002 RMK AO2 SLP182 T10331100
Observed
Feb-22 @ 13:53 UTC
Visibility
10 SM
Flight Rules
VFR
Cloud Levels
  • Overcast at 9,000' AGL
Temperature
-3°C / 27°F
Dewpoint
-10°C / 14°F
Humidity
59%
Altimeter
30.02" Hg
Pressure
1018.2 hPa